sensor_id;sensor_type;location;lat;lon;timestamp;temperature;humidity
5134;DHT22;2585;48.696;10.066;2023-04-01T00:01:23;6.70;80.60
5134;DHT22;2585;48.696;10.066;2023-04-01T00:03:49;6.70;83.50
5134;DHT22;2585;48.696;10.066;2023-04-01T00:06:18;6.70;80.70
5134;DHT22;2585;48.696;10.066;2023-04-01T00:08:45;6.70;78.90
5134;DHT22;2585;48.696;10.066;2023-04-01T00:11:12;6.70;78.30
5134;DHT22;2585;48.696;10.066;2023-04-01T00:13:40;6.70;78.20
5134;DHT22;2585;48.696;10.066;2023-04-01T00:16:07;6.70;79.10
5134;DHT22;2585;48.696;10.066;2023-04-01T00:18:46;6.70;81.60
5134;DHT22;2585;48.696;10.066;2023-04-01T00:21:17;6.60;83.30
5134;DHT22;2585;48.696;10.066;2023-04-01T00:23:44;6.70;84.60
5134;DHT22;2585;48.696;10.066;2023-04-01T00:26:11;6.60;85.20
5134;DHT22;2585;48.696;10.066;2023-04-01T00:28:39;6.70;84.60
5134;DHT22;2585;48.696;10.066;2023-04-01T00:31:08;6.70;84.80
5134;DHT22;2585;48.696;10.066;2023-04-01T00:33:35;6.70;84.60
5134;DHT22;2585;48.696;10.066;2023-04-01T00:36:09;6.70;84.00
5134;DHT22;2585;48.696;10.066;2023-04-01T00:38:37;6.80;82.10
5134;DHT22;2585;48.696;10.066;2023-04-01T00:41:05;6.80;80.00
5134;DHT22;2585;48.696;10.066;2023-04-01T00:43:33;6.80;79.70
5134;DHT22;2585;48.696;10.066;2023-04-01T00:46:00;6.70;80.60
5134;DHT22;2585;48.696;10.066;2023-04-01T00:48:30;6.70;81.70
5134;DHT22;2585;48.696;10.066;2023-04-01T00:51:01;6.80;80.90
5134;DHT22;2585;48.696;10.066;2023-04-01T00:53:30;6.90;79.40
5134;DHT22;2585;48.696;10.066;2023-04-01T00:56:04;6.90;74.30
5134;DHT22;2585;48.696;10.066;2023-04-01T00:58:35;6.90;72.40
5134;DHT22;2585;48.696;10.066;2023-04-01T01:01:06;6.90;73.10
5134;DHT22;2585;48.696;10.066;2023-04-01T01:03:34;6.90;73.40
5134;DHT22;2585;48.696;10.066;2023-04-01T01:12:02;6.90;73.70
5134;DHT22;2585;48.696;10.066;2023-04-01T01:14:55;6.90;71.80
5134;DHT22;2585;48.696;10.066;2023-04-01T01:23:53;6.90;70.70
5134;DHT22;2585;48.696;10.066;2023-04-01T01:26:33;6.90;70.20
5134;DHT22;2585;48.696;10.066;2023-04-01T01:32:03;6.90;67.70
5134;DHT22;2585;48.696;10.066;2023-04-01T01:37:15;6.80;79.50
5134;DHT22;2585;48.696;10.066;2023-04-01T01:39:52;6.80;80.50
5134;DHT22;2585;48.696;10.066;2023-04-01T01:42:20;6.80;80.90
5134;DHT22;2585;48.696;10.066;2023-04-01T01:44:47;6.80;81.20
5134;DHT22;2585;48.696;10.066;2023-04-01T01:47:16;6.80;81.00
5134;DHT22;2585;48.696;10.066;2023-04-01T01:49:43;6.80;76.40
5134;DHT22;2585;48.696;10.066;2023-04-01T01:52:12;6.80;74.70
5134;DHT22;2585;48.696;10.066;2023-04-01T01:54:50;6.80;75.40
5134;DHT22;2585;48.696;10.066;2023-04-01T01:57:20;6.80;76.00
5134;DHT22;2585;48.696;10.066;2023-04-01T01:59:50;6.90;72.50
5134;DHT22;2585;48.696;10.066;2023-04-01T02:02:18;6.80;74.70
5134;DHT22;2585;48.696;10.066;2023-04-01T02:04:46;6.80;75.90
5134;DHT22;2585;48.696;10.066;2023-04-01T02:07:21;6.80;77.80
5134;DHT22;2585;48.696;10.066;2023-04-01T02:09:49;6.80;75.80
5134;DHT22;2585;48.696;10.066;2023-04-01T02:12:17;6.80;73.70
5134;DHT22;2585;48.696;10.066;2023-04-01T02:14:57;6.90;38.70
5134;DHT22;2585;48.696;10.066;2023-04-01T02:17:29;7.00;1.00
5134;DHT22;2585;48.696;10.066;2023-04-01T02:20:03;7.00;1.00
5134;DHT22;2585;48.696;10.066;2023-04-01T02:22:38;7.00;1.00
5134;DHT22;2585;48.696;10.066;2023-04-01T02:25:10;7.00;1.00
5134;DHT22;2585;48.696;10.066;2023-04-01T02:27:39;7.10;1.00
5134;DHT22;2585;48.696;10.066;2023-04-01T02:30:07;7.00;1.00
5134;DHT22;2585;48.696;10.066;2023-04-01T02:32:35;7.10;1.00
5134;DHT22;2585;48.696;10.066;2023-04-01T02:35:09;7.10;1.00
5134;DHT22;2585;48.696;10.066;2023-04-01T02:37:38;7.10;90.90
5134;DHT22;2585;48.696;10.066;2023-04-01T02:40:07;7.10;91.00
5134;DHT22;2585;48.696;10.066;2023-04-01T02:42:36;7.10;1.00
5134;DHT22;2585;48.696;10.066;2023-04-01T02:45:04;7.10;1.00
5134;DHT22;2585;48.696;10.066;2023-04-01T02:47:31;7.00;1.00
5134;DHT22;2585;48.696;10.066;2023-04-01T02:49:57;7.00;1.00
5134;DHT22;2585;48.696;10.066;2023-04-01T02:52:25;7.10;1.00
5134;DHT22;2585;48.696;10.066;2023-04-01T02:54:53;7.20;1.00
5134;DHT22;2585;48.696;10.066;2023-04-01T02:57:20;7.20;73.40
5134;DHT22;2585;48.696;10.066;2023-04-01T02:59:47;7.20;10.70
5134;DHT22;2585;48.696;10.066;2023-04-01T03:02:15;7.20;90.50
5134;DHT22;2585;48.696;10.066;2023-04-01T03:04:42;7.20;1.00
5134;DHT22;2585;48.696;10.066;2023-04-01T03:07:09;7.20;1.00
5134;DHT22;2585;48.696;10.066;2023-04-01T03:09:37;7.20;60.70
5134;DHT22;2585;48.696;10.066;2023-04-01T03:12:05;7.10;78.40
5134;DHT22;2585;48.696;10.066;2023-04-01T03:14:32;7.20;1.00
5134;DHT22;2585;48.696;10.066;2023-04-01T03:16:59;7.20;63.30
5134;DHT22;2585;48.696;10.066;2023-04-01T03:19:26;7.20;1.00
5134;DHT22;2585;48.696;10.066;2023-04-01T03:21:53;7.20;4.20
5134;DHT22;2585;48.696;10.066;2023-04-01T03:24:20;7.20;78.40
5134;DHT22;2585;48.696;10.066;2023-04-01T03:26:46;7.20;79.50
5134;DHT22;2585;48.696;10.066;2023-04-01T03:29:13;7.20;21.70
5134;DHT22;2585;48.696;10.066;2023-04-01T03:31:42;7.20;90.10
5134;DHT22;2585;48.696;10.066;2023-04-01T03:34:09;7.20;54.40
5134;DHT22;2585;48.696;10.066;2023-04-01T03:36:36;7.30;75.30
5134;DHT22;2585;48.696;10.066;2023-04-01T03:39:03;7.20;73.70
5134;DHT22;2585;48.696;10.066;2023-04-01T03:41:30;7.20;70.20
5134;DHT22;2585;48.696;10.066;2023-04-01T03:43:57;7.20;38.70
5134;DHT22;2585;48.696;10.066;2023-04-01T03:46:24;7.20;3.90
5134;DHT22;2585;48.696;10.066;2023-04-01T03:48:51;7.10;72.70
5134;DHT22;2585;48.696;10.066;2023-04-01T03:51:17;7.10;1.00
5134;DHT22;2585;48.696;10.066;2023-04-01T03:53:44;7.10;1.00
5134;DHT22;2585;48.696;10.066;2023-04-01T03:56:11;7.10;90.40
5134;DHT22;2585;48.696;10.066;2023-04-01T03:58:38;7.10;80.30
5134;DHT22;2585;48.696;10.066;2023-04-01T04:01:19;7.00;46.40
5134;DHT22;2585;48.696;10.066;2023-04-01T04:03:50;7.20;1.00
5134;DHT22;2585;48.696;10.066;2023-04-01T04:06:18;7.20;1.00
5134;DHT22;2585;48.696;10.066;2023-04-01T04:08:45;7.20;1.00
5134;DHT22;2585;48.696;10.066;2023-04-01T04:11:12;7.20;1.00
5134;DHT22;2585;48.696;10.066;2023-04-01T04:13:39;7.20;1.00
5134;DHT22;2585;48.696;10.066;2023-04-01T04:16:06;7.20;1.00
5134;DHT22;2585;48.696;10.066;2023-04-01T04:18:34;7.20;61.70
5134;DHT22;2585;48.696;10.066;2023-04-01T04:21:01;7.20;86.20
5134;DHT22;2585;48.696;10.066;2023-04-01T04:23:28;7.20;65.80
5134;DHT22;2585;48.696;10.066;2023-04-01T04:26:03;7.20;70.80
5134;DHT22;2585;48.696;10.066;2023-04-01T04:28:30;7.10;1.00
5134;DHT22;2585;48.696;10.066;2023-04-01T04:30:57;7.10;1.00
5134;DHT22;2585;48.696;10.066;2023-04-01T04:33:25;7.20;1.00
5134;DHT22;2585;48.696;10.066;2023-04-01T04:35:55;7.20;1.00
5134;DHT22;2585;48.696;10.066;2023-04-01T04:38:23;7.20;1.00
5134;DHT22;2585;48.696;10.066;2023-04-01T04:40:49;7.20;1.00
5134;DHT22;2585;48.696;10.066;2023-04-01T04:43:17;7.20;17.10
5134;DHT22;2585;48.696;10.066;2023-04-01T04:45:45;7.10;65.70
5134;DHT22;2585;48.696;10.066;2023-04-01T04:48:14;7.10;79.20
5134;DHT22;2585;48.696;10.066;2023-04-01T04:50:49;7.10;88.70
5134;DHT22;2585;48.696;10.066;2023-04-01T04:53:18;7.10;1.00
5134;DHT22;2585;48.696;10.066;2023-04-01T04:55:47;7.00;1.00
5134;DHT22;2585;48.696;10.066;2023-04-01T04:58:15;7.00;1.00
5134;DHT22;2585;48.696;10.066;2023-04-01T05:00:42;6.90;1.00
5134;DHT22;2585;48.696;10.066;2023-04-01T05:03:09;6.80;1.00
5134;DHT22;2585;48.696;10.066;2023-04-01T05:05:37;6.70;1.00
5134;DHT22;2585;48.696;10.066;2023-04-01T05:08:04;6.70;1.00
5134;DHT22;2585;48.696;10.066;2023-04-01T05:10:31;6.70;64.10
5134;DHT22;2585;48.696;10.066;2023-04-01T05:12:58;6.70;1.00
5134;DHT22;2585;48.696;10.066;2023-04-01T05:15:25;6.50;67.50
5134;DHT22;2585;48.696;10.066;2023-04-01T05:17:52;6.50;1.00
5134;DHT22;2585;48.696;10.066;2023-04-01T05:20:19;6.40;77.10
5134;DHT22;2585;48.696;10.066;2023-04-01T05:22:45;6.40;1.00
5134;DHT22;2585;48.696;10.066;2023-04-01T05:25:12;6.40;91.20
5134;DHT22;2585;48.696;10.066;2023-04-01T05:27:39;6.40;75.10
5134;DHT22;2585;48.696;10.066;2023-04-01T05:30:06;6.40;1.00
5134;DHT22;2585;48.696;10.066;2023-04-01T05:32:33;6.30;1.00
5134;DHT22;2585;48.696;10.066;2023-04-01T05:35:00;6.30;68.40
5134;DHT22;2585;48.696;10.066;2023-04-01T05:37:27;6.30;1.00
5134;DHT22;2585;48.696;10.066;2023-04-01T05:39:53;6.30;1.00
5134;DHT22;2585;48.696;10.066;2023-04-01T05:42:23;6.20;1.00
5134;DHT22;2585;48.696;10.066;2023-04-01T05:44:49;6.30;1.00
5134;DHT22;2585;48.696;10.066;2023-04-01T05:47:16;6.30;1.00
5134;DHT22;2585;48.696;10.066;2023-04-01T05:49:43;6.30;1.00
5134;DHT22;2585;48.696;10.066;2023-04-01T05:52:10;6.30;1.00
5134;DHT22;2585;48.696;10.066;2023-04-01T05:54:36;6.30;1.00
5134;DHT22;2585;48.696;10.066;2023-04-01T05:57:03;6.30;14.70
5134;DHT22;2585;48.696;10.066;2023-04-01T05:59:30;6.30;22.80
5134;DHT22;2585;48.696;10.066;2023-04-01T06:01:57;6.30;57.20
5134;DHT22;2585;48.696;10.066;2023-04-01T06:04:28;6.30;45.70
5134;DHT22;2585;48.696;10.066;2023-04-01T06:06:59;6.30;61.30
5134;DHT22;2585;48.696;10.066;2023-04-01T06:09:27;6.40;74.30
5134;DHT22;2585;48.696;10.066;2023-04-01T06:12:19;6.40;79.40
5134;DHT22;2585;48.696;10.066;2023-04-01T06:15:20;6.40;86.30
5134;DHT22;2585;48.696;10.066;2023-04-01T06:18:12;6.50;1.00
5134;DHT22;2585;48.696;10.066;2023-04-01T06:26:14;6.60;90.20
5134;DHT22;2585;48.696;10.066;2023-04-01T06:28:47;6.60;1.00
5134;DHT22;2585;48.696;10.066;2023-04-01T06:40:12;6.80;77.30
5134;DHT22;2585;48.696;10.066;2023-04-01T06:43:18;6.90;68.80
5134;DHT22;2585;48.696;10.066;2023-04-01T06:46:55;7.10;75.20
5134;DHT22;2585;48.696;10.066;2023-04-01T06:49:32;7.20;64.80
5134;DHT22;2585;48.696;10.066;2023-04-01T06:52:10;7.30;1.00
5134;DHT22;2585;48.696;10.066;2023-04-01T06:54:47;7.40;1.00
5134;DHT22;2585;48.696;10.066;2023-04-01T06:57:54;7.60;1.00
5134;DHT22;2585;48.696;10.066;2023-04-01T07:00:31;7.70;1.00
5134;DHT22;2585;48.696;10.066;2023-04-01T07:03:10;7.70;44.80
5134;DHT22;2585;48.696;10.066;2023-04-01T07:05:40;7.80;1.00
5134;DHT22;2585;48.696;10.066;2023-04-01T07:08:16;7.90;69.50
5134;DHT22;2585;48.696;10.066;2023-04-01T07:11:06;7.90;1.00
5134;DHT22;2585;48.696;10.066;2023-04-01T07:16:29;7.90;1.00
5134;DHT22;2585;48.696;10.066;2023-04-01T07:21:36;8.00;1.00
5134;DHT22;2585;48.696;10.066;2023-04-01T07:24:45;7.90;1.00
5134;DHT22;2585;48.696;10.066;2023-04-01T07:27:07;7.90;1.00
5134;DHT22;2585;48.696;10.066;2023-04-01T07:29:36;8.00;1.00
5134;DHT22;2585;48.696;10.066;2023-04-01T07:35:18;7.90;27.70
5134;DHT22;2585;48.696;10.066;2023-04-01T07:41:02;7.90;91.10
5134;DHT22;2585;48.696;10.066;2023-04-01T07:49:15;8.00;1.00
5134;DHT22;2585;48.696;10.066;2023-04-01T07:54:55;8.00;1.00
5134;DHT22;2585;48.696;10.066;2023-04-01T07:57:36;7.90;46.40
5134;DHT22;2585;48.696;10.066;2023-04-01T08:05:53;7.70;1.00
5134;DHT22;2585;48.696;10.066;2023-04-01T08:14:22;7.60;86.40
5134;DHT22;2585;48.696;10.066;2023-04-01T08:19:59;7.60;89.80
5134;DHT22;2585;48.696;10.066;2023-04-01T08:22:36;7.60;1.00
5134;DHT22;2585;48.696;10.066;2023-04-01T08:25:05;7.50;1.00
5134;DHT22;2585;48.696;10.066;2023-04-01T08:27:37;7.50;1.00
5134;DHT22;2585;48.696;10.066;2023-04-01T08:33:01;7.50;1.00
5134;DHT22;2585;48.696;10.066;2023-04-01T08:35:39;7.50;21.20
5134;DHT22;2585;48.696;10.066;2023-04-01T08:38:26;7.50;13.00
5134;DHT22;2585;48.696;10.066;2023-04-01T08:41:01;7.50;1.00
5134;DHT22;2585;48.696;10.066;2023-04-01T08:51:59;7.40;66.50
5134;DHT22;2585;48.696;10.066;2023-04-01T08:57:55;7.50;61.20
5134;DHT22;2585;48.696;10.066;2023-04-01T09:00:53;7.50;51.60
5134;DHT22;2585;48.696;10.066;2023-04-01T09:06:12;7.60;70.70
5134;DHT22;2585;48.696;10.066;2023-04-01T09:14:35;7.60;17.80
5134;DHT22;2585;48.696;10.066;2023-04-01T09:17:53;7.60;58.40
5134;DHT22;2585;48.696;10.066;2023-04-01T09:21:14;7.60;19.30
5134;DHT22;2585;48.696;10.066;2023-04-01T09:26:26;7.50;51.10
5134;DHT22;2585;48.696;10.066;2023-04-01T09:40:45;7.50;74.50
5134;DHT22;2585;48.696;10.066;2023-04-01T09:52:30;7.60;78.20
5134;DHT22;2585;48.696;10.066;2023-04-01T09:57:56;7.70;80.80
5134;DHT22;2585;48.696;10.066;2023-04-01T10:06:21;7.50;78.50
5134;DHT22;2585;48.696;10.066;2023-04-01T10:26:10;7.50;87.20
5134;DHT22;2585;48.696;10.066;2023-04-01T10:51:04;7.60;88.40
5134;DHT22;2585;48.696;10.066;2023-04-01T11:01:56;7.80;89.30
5134;DHT22;2585;48.696;10.066;2023-04-01T11:05:07;7.90;89.50
5134;DHT22;2585;48.696;10.066;2023-04-01T11:13:46;8.00;76.50
5134;DHT22;2585;48.696;10.066;2023-04-01T11:30:49;8.30;76.00
5134;DHT22;2585;48.696;10.066;2023-04-01T11:41:45;8.30;68.00
5134;DHT22;2585;48.696;10.066;2023-04-01T11:44:20;8.20;63.20
5134;DHT22;2585;48.696;10.066;2023-04-01T11:57:53;8.20;72.20
5134;DHT22;2585;48.696;10.066;2023-04-01T12:05:54;8.20;77.60
5134;DHT22;2585;48.696;10.066;2023-04-01T12:08:36;8.30;75.40
5134;DHT22;2585;48.696;10.066;2023-04-01T12:11:34;8.40;73.00
5134;DHT22;2585;48.696;10.066;2023-04-01T12:14:05;8.50;74.60
5134;DHT22;2585;48.696;10.066;2023-04-01T12:16:55;8.70;67.90
5134;DHT22;2585;48.696;10.066;2023-04-01T12:31:04;9.00;68.10
5134;DHT22;2585;48.696;10.066;2023-04-01T12:36:50;8.80;15.50
5134;DHT22;2585;48.696;10.066;2023-04-01T12:39:57;8.90;55.30
5134;DHT22;2585;48.696;10.066;2023-04-01T12:45:18;9.00;62.90
5134;DHT22;2585;48.696;10.066;2023-04-01T12:53:58;9.10;1.00
5134;DHT22;2585;48.696;10.066;2023-04-01T13:00:09;9.10;1.00
5134;DHT22;2585;48.696;10.066;2023-04-01T13:07:47;9.20;1.00
5134;DHT22;2585;48.696;10.066;2023-04-01T13:11:25;9.30;1.00
5134;DHT22;2585;48.696;10.066;2023-04-01T13:19:42;9.40;38.60
5134;DHT22;2585;48.696;10.066;2023-04-01T13:28:15;9.00;1.00
5134;DHT22;2585;48.696;10.066;2023-04-01T13:31:00;8.90;1.00
5134;DHT22;2585;48.696;10.066;2023-04-01T13:39:06;9.10;60.50
5134;DHT22;2585;48.696;10.066;2023-04-01T13:42:09;9.00;28.70
5134;DHT22;2585;48.696;10.066;2023-04-01T13:44:51;8.90;63.10
5134;DHT22;2585;48.696;10.066;2023-04-01T13:47:43;9.00;65.70
5134;DHT22;2585;48.696;10.066;2023-04-01T13:58:57;9.10;64.10
5134;DHT22;2585;48.696;10.066;2023-04-01T14:04:24;8.80;1.00
5134;DHT22;2585;48.696;10.066;2023-04-01T14:07:03;8.70;1.00
5134;DHT22;2585;48.696;10.066;2023-04-01T14:15:16;8.70;1.00
5134;DHT22;2585;48.696;10.066;2023-04-01T14:23:33;8.70;1.00
5134;DHT22;2585;48.696;10.066;2023-04-01T14:40:54;8.60;60.00
5134;DHT22;2585;48.696;10.066;2023-04-01T14:49:30;8.80;5.40
5134;DHT22;2585;48.696;10.066;2023-04-01T14:54:38;8.80;1.00
5134;DHT22;2585;48.696;10.066;2023-04-01T14:57:16;8.80;1.00
5134;DHT22;2585;48.696;10.066;2023-04-01T15:02:56;8.80;66.50
5134;DHT22;2585;48.696;10.066;2023-04-01T15:08:16;8.80;72.70
5134;DHT22;2585;48.696;10.066;2023-04-01T15:11:23;8.90;81.30
5134;DHT22;2585;48.696;10.066;2023-04-01T15:34:18;8.70;55.50
5134;DHT22;2585;48.696;10.066;2023-04-01T15:45:04;8.60;1.00
5134;DHT22;2585;48.696;10.066;2023-04-01T15:47:58;8.60;1.00
5134;DHT22;2585;48.696;10.066;2023-04-01T15:53:43;8.50;1.00
5134;DHT22;2585;48.696;10.066;2023-04-01T15:56:30;8.60;1.00
5134;DHT22;2585;48.696;10.066;2023-04-01T16:02:14;8.50;1.00
5134;DHT22;2585;48.696;10.066;2023-04-01T16:04:58;8.30;1.00
5134;DHT22;2585;48.696;10.066;2023-04-01T16:21:24;8.00;1.00
5134;DHT22;2585;48.696;10.066;2023-04-01T16:26:55;7.90;1.00
5134;DHT22;2585;48.696;10.066;2023-04-01T16:37:36;7.80;1.00
5134;DHT22;2585;48.696;10.066;2023-04-01T16:40:24;7.80;14.30
5134;DHT22;2585;48.696;10.066;2023-04-01T16:43:10;7.80;29.80
5134;DHT22;2585;48.696;10.066;2023-04-01T16:57:20;7.70;60.90
5134;DHT22;2585;48.696;10.066;2023-04-01T16:59:59;7.70;46.70
5134;DHT22;2585;48.696;10.066;2023-04-01T17:02:33;7.70;67.50
5134;DHT22;2585;48.696;10.066;2023-04-01T17:05:10;7.60;65.80
5134;DHT22;2585;48.696;10.066;2023-04-01T17:10:37;7.70;61.00
5134;DHT22;2585;48.696;10.066;2023-04-01T17:15:43;7.70;33.60
5134;DHT22;2585;48.696;10.066;2023-04-01T17:21:09;7.80;1.00
5134;DHT22;2585;48.696;10.066;2023-04-01T17:28:53;7.70;3.70
5134;DHT22;2585;48.696;10.066;2023-04-01T17:31:44;7.70;1.00
5134;DHT22;2585;48.696;10.066;2023-04-01T17:37:54;7.60;6.40
5134;DHT22;2585;48.696;10.066;2023-04-01T17:51:49;7.50;20.50
5134;DHT22;2585;48.696;10.066;2023-04-01T17:54:30;7.60;1.00
5134;DHT22;2585;48.696;10.066;2023-04-01T17:59:55;7.50;46.90
5134;DHT22;2585;48.696;10.066;2023-04-01T18:05:47;7.40;68.70
5134;DHT22;2585;48.696;10.066;2023-04-01T18:25:12;7.20;76.50
5134;DHT22;2585;48.696;10.066;2023-04-01T18:27:47;7.30;75.30
5134;DHT22;2585;48.696;10.066;2023-04-01T18:30:22;7.20;77.30
5134;DHT22;2585;48.696;10.066;2023-04-01T18:35:56;7.30;77.10
5134;DHT22;2585;48.696;10.066;2023-04-01T18:38:36;7.20;78.20
5134;DHT22;2585;48.696;10.066;2023-04-01T19:02:45;7.10;86.90
5134;DHT22;2585;48.696;10.066;2023-04-01T19:05:30;7.10;87.90
5134;DHT22;2585;48.696;10.066;2023-04-01T19:08:30;7.00;88.50
5134;DHT22;2585;48.696;10.066;2023-04-01T19:22:26;7.00;90.40
5134;DHT22;2585;48.696;10.066;2023-04-01T19:25:21;7.00;90.50
5134;DHT22;2585;48.696;10.066;2023-04-01T19:30:58;6.90;90.70
5134;DHT22;2585;48.696;10.066;2023-04-01T19:33:51;6.90;90.80
5134;DHT22;2585;48.696;10.066;2023-04-01T19:36:37;6.90;90.80
5134;DHT22;2585;48.696;10.066;2023-04-01T19:56:24;6.90;90.20
5134;DHT22;2585;48.696;10.066;2023-04-01T19:59:19;6.90;90.10
5134;DHT22;2585;48.696;10.066;2023-04-01T20:02:43;6.90;90.00
5134;DHT22;2585;48.696;10.066;2023-04-01T20:04:48;6.80;90.00
5134;DHT22;2585;48.696;10.066;2023-04-01T20:07:25;6.80;90.00
5134;DHT22;2585;48.696;10.066;2023-04-01T20:10:14;6.70;90.10
5134;DHT22;2585;48.696;10.066;2023-04-01T20:13:02;6.70;90.10
5134;DHT22;2585;48.696;10.066;2023-04-01T20:15:37;6.70;90.10
5134;DHT22;2585;48.696;10.066;2023-04-01T20:18:23;6.70;90.20
5134;DHT22;2585;48.696;10.066;2023-04-01T20:21:24;6.70;90.20
5134;DHT22;2585;48.696;10.066;2023-04-01T20:23:50;6.70;90.10
5134;DHT22;2585;48.696;10.066;2023-04-01T20:26:23;6.70;90.00
5134;DHT22;2585;48.696;10.066;2023-04-01T20:40:45;6.70;88.70
5134;DHT22;2585;48.696;10.066;2023-04-01T20:46:20;6.80;88.00
5134;DHT22;2585;48.696;10.066;2023-04-01T20:54:56;6.70;88.30
5134;DHT22;2585;48.696;10.066;2023-04-01T21:09:14;6.60;89.20
5134;DHT22;2585;48.696;10.066;2023-04-01T21:14:54;6.60;89.80
5134;DHT22;2585;48.696;10.066;2023-04-01T21:23:54;6.60;90.10
5134;DHT22;2585;48.696;10.066;2023-04-01T21:38:35;6.40;90.40
5134;DHT22;2585;48.696;10.066;2023-04-01T21:40:52;6.40;90.50
5134;DHT22;2585;48.696;10.066;2023-04-01T21:46:38;6.30;90.60
5134;DHT22;2585;48.696;10.066;2023-04-01T21:58:07;6.20;90.70
5134;DHT22;2585;48.696;10.066;2023-04-01T22:03:52;6.20;90.70
5134;DHT22;2585;48.696;10.066;2023-04-01T22:06:46;6.20;90.80
5134;DHT22;2585;48.696;10.066;2023-04-01T22:09:25;6.20;90.80
5134;DHT22;2585;48.696;10.066;2023-04-01T22:12:12;6.20;90.80
5134;DHT22;2585;48.696;10.066;2023-04-01T22:17:41;6.30;90.90
5134;DHT22;2585;48.696;10.066;2023-04-01T22:20:30;6.30;90.90
5134;DHT22;2585;48.696;10.066;2023-04-01T22:23:26;6.30;90.90
5134;DHT22;2585;48.696;10.066;2023-04-01T22:29:15;6.30;90.90
5134;DHT22;2585;48.696;10.066;2023-04-01T22:31:49;6.30;91.00
5134;DHT22;2585;48.696;10.066;2023-04-01T22:34:37;6.30;91.00
5134;DHT22;2585;48.696;10.066;2023-04-01T22:43:00;6.20;91.00
5134;DHT22;2585;48.696;10.066;2023-04-01T22:45:53;6.20;91.00
5134;DHT22;2585;48.696;10.066;2023-04-01T22:48:45;6.20;91.00
5134;DHT22;2585;48.696;10.066;2023-04-01T22:54:23;6.20;91.00
5134;DHT22;2585;48.696;10.066;2023-04-01T22:57:01;6.20;91.00
5134;DHT22;2585;48.696;10.066;2023-04-01T23:02:06;6.30;91.00
5134;DHT22;2585;48.696;10.066;2023-04-01T23:04:39;6.30;91.00
5134;DHT22;2585;48.696;10.066;2023-04-01T23:10:42;6.30;90.90
5134;DHT22;2585;48.696;10.066;2023-04-01T23:13:16;6.30;90.90
5134;DHT22;2585;48.696;10.066;2023-04-01T23:15:45;6.30;90.80
5134;DHT22;2585;48.696;10.066;2023-04-01T23:18:27;6.30;90.80
5134;DHT22;2585;48.696;10.066;2023-04-01T23:21:23;6.20;90.80
5134;DHT22;2585;48.696;10.066;2023-04-01T23:29:16;6.30;90.60
5134;DHT22;2585;48.696;10.066;2023-04-01T23:31:45;6.20;90.50
5134;DHT22;2585;48.696;10.066;2023-04-01T23:36:53;6.20;90.40
5134;DHT22;2585;48.696;10.066;2023-04-01T23:39:34;6.20;90.40
5134;DHT22;2585;48.696;10.066;2023-04-01T23:42:13;6.20;90.30
5134;DHT22;2585;48.696;10.066;2023-04-01T23:44:41;6.20;90.00
5134;DHT22;2585;48.696;10.066;2023-04-01T23:47:14;6.20;90.00
5134;DHT22;2585;48.696;10.066;2023-04-01T23:49:46;6.10;94.60
5134;DHT22;2585;48.696;10.066;2023-04-01T23:52:25;6.10;94.70
5134;DHT22;2585;48.696;10.066;2023-04-01T23:55:01;6.10;94.70
5134;DHT22;2585;48.696;10.066;2023-04-01T23:57:34;6.10;94.80
